Time;durP1;ratioP1;P1;durP2;ratioP2;P2;SDS_P1;SDS_P2;PMS_P1;PMS_P2;Temp;Humidity;BMP_temperature;BMP_pressure;BME280_temperature;BME280_humidity;BME280_pressure;Samples;Min_cycle;Max_cycle;Signal;HPM_P1;HPM_P2
2024/01/30 00:00:33;;;;;;;;;;;3.80;99.90;;;;;;5017074;28;20448;-76
2024/01/30 00:02:59;;;;;;;;;;;3.70;99.90;;;;;;5011582;28;19945;-75
2024/01/30 00:05:24;;;;;;;;;;;3.70;99.90;;;;;;5015610;28;19927;-76
2024/01/30 00:07:50;;;;;;;;;;;3.70;99.90;;;;;;5022719;28;19924;-76
2024/01/30 00:10:15;;;;;;;;;;;4.40;99.90;;;;;;5016195;28;20011;-76
2024/01/30 00:12:41;;;;;;;;;;;3.80;99.90;;;;;;5019004;28;19925;-76
2024/01/30 00:15:09;;;;;;;;;;;4.70;99.90;;;;;;5015229;28;20363;-76
2024/01/30 00:17:35;;;;;;;;;;;3.60;99.90;;;;;;4999268;28;20055;-76
2024/01/30 00:20:05;;;;;;;;;;;4.30;99.90;;;;;;4996090;28;19925;-75
2024/01/30 00:22:31;;;;;;;;;;;3.50;99.90;;;;;;5029332;28;19925;-76
2024/01/30 00:25:00;;;;;;;;;;;3.50;99.90;;;;;;5028396;28;19924;-76
2024/01/30 00:27:26;;;;;;;;;;;4.10;99.90;;;;;;5016846;28;19917;-77
2024/01/30 00:29:52;;;;;;;;;;;3.40;99.90;;;;;;4994785;28;20719;-76
2024/01/30 00:32:19;;;;;;;;;;;3.40;99.90;;;;;;5023684;28;19929;-75
2024/01/30 00:34:44;;;;;;;;;;;3.40;99.90;;;;;;5027065;28;19921;-76
2024/01/30 00:37:10;;;;;;;;;;;3.40;99.90;;;;;;4993440;28;20647;-76
2024/01/30 00:39:36;;;;;;;;;;;3.30;99.90;;;;;;5031319;28;20374;-76
2024/01/30 00:42:01;;;;;;;;;;;3.40;99.90;;;;;;5013233;28;20163;-76
2024/01/30 00:44:27;;;;;;;;;;;3.30;99.90;;;;;;5012932;28;19961;-76
2024/01/30 00:46:52;;;;;;;;;;;3.80;99.90;;;;;;4980392;28;19960;-76
2024/01/30 00:49:18;;;;;;;;;;;3.40;99.90;;;;;;4979582;28;19925;-76
2024/01/30 00:51:44;;;;;;;;;;;3.30;99.90;;;;;;5013265;28;20014;-76
2024/01/30 00:54:09;;;;;;;;;;;3.20;99.90;;;;;;5011856;28;19925;-76
2024/01/30 00:56:35;;;;;;;;;;;3.30;99.90;;;;;;5013280;28;19999;-76
2024/01/30 00:59:00;;;;;;;;;;;3.20;99.90;;;;;;4995684;28;19917;-76
2024/01/30 01:01:26;;;;;;;;;;;3.30;99.90;;;;;;5008918;28;20390;-76
2024/01/30 01:03:51;;;;;;;;;;;3.30;99.90;;;;;;5011044;28;19983;-76
2024/01/30 01:06:17;;;;;;;;;;;3.30;99.90;;;;;;5011702;28;19963;-76
2024/01/30 01:08:42;;;;;;;;;;;3.30;99.90;;;;;;5013434;28;20074;-76
2024/01/30 01:11:08;;;;;;;;;;;3.30;99.90;;;;;;5009953;28;19929;-77
2024/01/30 01:13:35;;;;;;;;;;;4.20;99.90;;;;;;5008051;28;20000;-77
2024/01/30 01:16:04;;;;;;;;;;;3.40;99.90;;;;;;5009496;28;19924;-76
2024/01/30 01:18:29;;;;;;;;;;;3.40;99.90;;;;;;4991419;28;19921;-77
2024/01/30 01:20:55;;;;;;;;;;;3.80;99.90;;;;;;4992929;28;20008;-78
2024/01/30 01:23:20;;;;;;;;;;;3.40;99.90;;;;;;5031495;28;20443;-76
2024/01/30 01:25:46;;;;;;;;;;;3.40;99.90;;;;;;5027425;28;19925;-76
2024/01/30 01:28:11;;;;;;;;;;;3.40;99.90;;;;;;5024700;28;19931;-76
2024/01/30 01:30:38;;;;;;;;;;;3.40;99.90;;;;;;5009573;28;19918;-77
2024/01/30 01:33:03;;;;;;;;;;;3.40;99.90;;;;;;5011407;28;20011;-77
2024/01/30 01:35:29;;;;;;;;;;;3.50;99.90;;;;;;5005529;28;20052;-76
2024/01/30 01:37:54;;;;;;;;;;;3.40;99.90;;;;;;5007979;28;19932;-76
2024/01/30 01:40:21;;;;;;;;;;;3.60;99.90;;;;;;4993046;28;20260;-76
2024/01/30 01:42:48;;;;;;;;;;;3.60;99.90;;;;;;4992918;28;19925;-76
2024/01/30 01:45:13;;;;;;;;;;;3.70;99.90;;;;;;5030124;28;20255;-78
2024/01/30 01:47:39;;;;;;;;;;;3.70;99.90;;;;;;5008868;28;19988;-76
2024/01/30 01:50:05;;;;;;;;;;;3.90;99.90;;;;;;5007578;28;19975;-76
2024/01/30 01:52:31;;;;;;;;;;;3.90;99.90;;;;;;5011471;28;19928;-76
2024/01/30 01:54:57;;;;;;;;;;;4.10;99.90;;;;;;5029160;28;19999;-77
2024/01/30 01:57:22;;;;;;;;;;;4.20;99.90;;;;;;5000160;28;19917;-77
2024/01/30 01:59:48;;;;;;;;;;;4.50;99.90;;;;;;5011386;28;19916;-76
2024/01/30 02:02:15;;;;;;;;;;;4.30;99.90;;;;;;4988608;28;20305;-76
2024/01/30 02:04:41;;;;;;;;;;;4.40;99.90;;;;;;4995689;28;19921;-76
2024/01/30 02:07:08;;;;;;;;;;;4.70;99.90;;;;;;5023025;28;19917;-76
2024/01/30 02:09:33;;;;;;;;;;;4.60;99.90;;;;;;5026255;28;20397;-77
2024/01/30 02:11:59;;;;;;;;;;;4.60;99.90;;;;;;5024127;28;19979;-76
2024/01/30 02:14:24;;;;;;;;;;;4.60;99.90;;;;;;5006966;28;19925;-76
2024/01/30 02:16:50;;;;;;;;;;;4.60;99.90;;;;;;5005957;28;19924;-77
2024/01/30 02:19:15;;;;;;;;;;;4.60;99.90;;;;;;5008158;28;19995;-77
2024/01/30 02:21:41;;;;;;;;;;;4.70;99.90;;;;;;5009677;28;20647;-77
2024/01/30 02:24:07;;;;;;;;;;;4.70;99.90;;;;;;4996096;28;19932;-76
2024/01/30 02:26:32;;;;;;;;;;;4.70;99.90;;;;;;5009035;28;20310;-76
2024/01/30 02:28:58;;;;;;;;;;;4.60;99.90;;;;;;5003966;28;19960;-77
2024/01/30 02:31:24;;;;;;;;;;;4.80;99.90;;;;;;5009215;28;20259;-76
2024/01/30 02:33:50;;;;;;;;;;;4.80;99.90;;;;;;5023935;28;20024;-77
2024/01/30 02:36:16;;;;;;;;;;;4.70;99.90;;;;;;4986913;28;20019;-76
2024/01/30 02:38:42;;;;;;;;;;;4.50;99.90;;;;;;5003822;28;19928;-77
2024/01/30 02:41:07;;;;;;;;;;;4.50;99.90;;;;;;4993877;28;20004;-76
2024/01/30 02:43:36;;;;;;;;;;;4.40;99.90;;;;;;5008545;28;20474;-82
2024/01/30 02:46:01;;;;;;;;;;;4.80;99.90;;;;;;5021377;28;20000;-83
2024/01/30 02:48:27;;;;;;;;;;;4.50;99.90;;;;;;5004376;28;19933;-81
2024/01/30 02:50:52;;;;;;;;;;;4.60;99.90;;;;;;4987137;28;20015;-82
2024/01/30 02:53:18;;;;;;;;;;;4.80;99.90;;;;;;5010919;28;19925;-82
2024/01/30 02:55:44;;;;;;;;;;;4.80;99.90;;;;;;5011246;28;20367;-83
2024/01/30 02:58:09;;;;;;;;;;;5.00;99.90;;;;;;5005503;28;19921;-83
2024/01/30 03:00:36;;;;;;;;;;;5.40;99.90;;;;;;5010544;28;19970;-83
2024/01/30 03:03:02;;;;;;;;;;;5.00;99.90;;;;;;5005304;28;20381;-83
2024/01/30 03:05:31;;;;;;;;;;;4.90;99.90;;;;;;5022010;28;19925;-82
2024/01/30 03:07:56;;;;;;;;;;;4.80;99.90;;;;;;4993208;28;19932;-83
2024/01/30 03:10:23;;;;;;;;;;;4.90;99.90;;;;;;5021502;28;19943;-83
2024/01/30 03:12:49;;;;;;;;;;;4.90;99.90;;;;;;4984586;28;19944;-82
2024/01/30 03:15:14;;;;;;;;;;;4.90;99.90;;;;;;4990757;28;20358;-82
2024/01/30 03:17:40;;;;;;;;;;;4.80;99.90;;;;;;5008842;28;21229;-82
2024/01/30 03:20:06;;;;;;;;;;;5.40;99.90;;;;;;5027633;28;19924;-83
2024/01/30 03:22:32;;;;;;;;;;;4.90;99.90;;;;;;4980490;28;19921;-83
2024/01/30 03:24:57;;;;;;;;;;;5.00;99.90;;;;;;4982581;28;19917;-84
2024/01/30 03:27:23;;;;;;;;;;;5.10;99.90;;;;;;5020357;28;19918;-83
2024/01/30 03:29:54;;;;;;;;;;;5.20;99.90;;;;;;4993028;28;19992;-82
2024/01/30 03:32:20;;;;;;;;;;;5.40;99.90;;;;;;5024994;28;19960;-84
2024/01/30 03:34:45;;;;;;;;;;;5.50;99.90;;;;;;5023952;28;20011;-84
2024/01/30 03:37:11;;;;;;;;;;;5.80;99.90;;;;;;4980804;28;19925;-86
2024/01/30 03:39:37;;;;;;;;;;;5.20;99.90;;;;;;5004292;28;19928;-84
2024/01/30 03:42:03;;;;;;;;;;;5.20;99.90;;;;;;5000906;28;19917;-83
2024/01/30 03:44:28;;;;;;;;;;;5.10;99.90;;;;;;4989578;28;19917;-83
2024/01/30 03:46:54;;;;;;;;;;;5.20;99.90;;;;;;5003051;28;19928;-84
2024/01/30 03:49:19;;;;;;;;;;;5.50;99.90;;;;;;4999852;28;19925;-84
2024/01/30 03:51:47;;;;;;;;;;;5.30;99.90;;;;;;4971636;28;19921;-84
2024/01/30 03:54:13;;;;;;;;;;;5.30;99.90;;;;;;5000335;28;19972;-84
2024/01/30 03:56:38;;;;;;;;;;;5.40;99.90;;;;;;4984214;28;20264;-83
2024/01/30 03:59:04;;;;;;;;;;;5.60;99.90;;;;;;4985233;28;19968;-83
2024/01/30 04:01:29;;;;;;;;;;;5.60;99.90;;;;;;5001724;28;19921;-83
2024/01/30 04:04:01;;;;;;;;;;;5.30;99.90;;;;;;5002383;28;20035;-83
2024/01/30 04:06:26;;;;;;;;;;;5.50;99.90;;;;;;4992399;28;20398;-83
2024/01/30 04:08:52;;;;;;;;;;;5.30;99.90;;;;;;5009909;28;19925;-83
2024/01/30 04:11:18;;;;;;;;;;;5.20;99.90;;;;;;5025963;28;19918;-82
2024/01/30 04:13:45;;;;;;;;;;;3.60;99.90;;;;;;5012675;28;19917;-82
2024/01/30 04:16:18;;;;;;;;;;;5.30;99.90;;;;;;4976675;28;20399;-82
2024/01/30 04:18:44;;;;;;;;;;;5.40;99.90;;;;;;5010530;28;19968;-82
2024/01/30 04:21:10;;;;;;;;;;;5.40;99.90;;;;;;5007341;28;20325;-83
2024/01/30 04:23:36;;;;;;;;;;;5.80;99.90;;;;;;5010123;28;19925;-83
2024/01/30 04:26:08;;;;;;;;;;;5.60;99.90;;;;;;5011492;28;19924;-83
2024/01/30 04:28:34;;;;;;;;;;;6.00;99.90;;;;;;5008898;28;19997;-82
2024/01/30 04:30:59;;;;;;;;;;;5.70;99.90;;;;;;5012812;28;19925;-82
2024/01/30 04:33:25;;;;;;;;;;;5.80;99.90;;;;;;5007571;28;19917;-83
2024/01/30 04:35:51;;;;;;;;;;;5.90;99.90;;;;;;5026768;28;19927;-81
2024/01/30 04:38:19;;;;;;;;;;;6.30;99.90;;;;;;4990037;28;19922;-82
2024/01/30 04:40:44;;;;;;;;;;;6.10;99.90;;;;;;4989363;28;19968;-82
2024/01/30 04:43:10;;;;;;;;;;;6.00;99.90;;;;;;5002496;28;20358;-83
2024/01/30 04:45:36;;;;;;;;;;;6.20;99.90;;;;;;5003871;28;20013;-83
2024/01/30 04:48:01;;;;;;;;;;;6.30;99.90;;;;;;5004670;28;19921;-83
2024/01/30 04:50:27;;;;;;;;;;;6.20;99.90;;;;;;4990564;28;19918;-83
2024/01/30 04:52:52;;;;;;;;;;;6.20;99.90;;;;;;5001890;28;19980;-83
2024/01/30 04:55:18;;;;;;;;;;;6.50;99.90;;;;;;5009858;28;19927;-83
2024/01/30 04:57:43;;;;;;;;;;;6.20;99.90;;;;;;5004541;28;19929;-82
2024/01/30 05:00:09;;;;;;;;;;;6.30;99.90;;;;;;5000391;28;19917;-82
2024/01/30 05:02:35;;;;;;;;;;;6.30;99.90;;;;;;5007728;28;19949;-83
2024/01/30 05:05:04;;;;;;;;;;;6.30;99.90;;;;;;5003984;28;19971;-77
2024/01/30 05:07:29;;;;;;;;;;;6.40;99.90;;;;;;5007155;28;19921;-77
2024/01/30 05:09:55;;;;;;;;;;;6.70;99.90;;;;;;5003908;28;19926;-78
2024/01/30 05:12:20;;;;;;;;;;;6.50;99.90;;;;;;5004763;28;20292;-77
2024/01/30 05:14:47;;;;;;;;;;;6.50;99.90;;;;;;4985348;28;19956;-77
2024/01/30 05:17:13;;;;;;;;;;;6.50;99.90;;;;;;5000177;28;19960;-76
2024/01/30 05:19:39;;;;;;;;;;;6.60;99.90;;;;;;5002621;28;19967;-77
2024/01/30 05:22:05;;;;;;;;;;;6.60;99.90;;;;;;4993293;28;19925;-77
2024/01/30 05:24:32;;;;;;;;;;;6.60;99.90;;;;;;5010026;28;19949;-77
2024/01/30 05:26:57;;;;;;;;;;;6.70;99.90;;;;;;5014983;28;19921;-77
2024/01/30 05:29:24;;;;;;;;;;;6.70;99.90;;;;;;5006347;28;19922;-76
2024/01/30 05:31:49;;;;;;;;;;;6.70;99.90;;;;;;5004308;28;20112;-77
2024/01/30 05:34:15;;;;;;;;;;;6.70;99.90;;;;;;5006773;28;20015;-77
2024/01/30 05:36:41;;;;;;;;;;;6.80;99.90;;;;;;4991099;28;19928;-77
2024/01/30 05:39:07;;;;;;;;;;;6.80;99.90;;;;;;5005043;28;19926;-76
2024/01/30 05:41:33;;;;;;;;;;;6.80;99.90;;;;;;5005405;28;19925;-77
2024/01/30 05:43:59;;;;;;;;;;;7.00;99.90;;;;;;5006701;28;19917;-77
2024/01/30 05:46:24;;;;;;;;;;;6.90;99.90;;;;;;5008854;28;20055;-77
2024/01/30 05:48:50;;;;;;;;;;;6.90;99.90;;;;;;4988699;28;19937;-77
2024/01/30 05:51:15;;;;;;;;;;;6.80;99.90;;;;;;5006871;28;19968;-76
2024/01/30 05:53:41;;;;;;;;;;;6.90;99.90;;;;;;4993589;28;19921;-76
2024/01/30 05:56:06;;;;;;;;;;;6.80;99.90;;;;;;5004493;28;20330;-77
2024/01/30 05:58:32;;;;;;;;;;;6.80;99.90;;;;;;5001468;28;19921;-77
2024/01/30 06:00:58;;;;;;;;;;;6.80;99.90;;;;;;5008178;28;20421;-77
2024/01/30 06:03:23;;;;;;;;;;;6.90;99.90;;;;;;5004186;28;20391;-77
2024/01/30 06:05:49;;;;;;;;;;;6.90;99.90;;;;;;5003813;28;20024;-78
2024/01/30 06:08:15;;;;;;;;;;;6.90;99.90;;;;;;5021221;28;20509;-77
2024/01/30 06:10:40;;;;;;;;;;;6.90;99.90;;;;;;5001961;28;20005;-78
2024/01/30 06:13:06;;;;;;;;;;;6.90;99.90;;;;;;5001977;28;19918;-77
2024/01/30 06:15:32;;;;;;;;;;;6.90;99.90;;;;;;5002909;28;20350;-77
2024/01/30 06:17:58;;;;;;;;;;;7.00;99.90;;;;;;5002497;28;19933;-77
2024/01/30 06:20:24;;;;;;;;;;;7.00;99.90;;;;;;5004390;28;20499;-77
2024/01/30 06:22:49;;;;;;;;;;;7.00;99.90;;;;;;4985852;28;19917;-76
2024/01/30 06:25:16;;;;;;;;;;;7.00;99.90;;;;;;4992484;28;19925;-77
2024/01/30 06:27:42;;;;;;;;;;;7.10;99.90;;;;;;5004247;28;19921;-77
2024/01/30 06:30:08;;;;;;;;;;;7.00;99.90;;;;;;5005248;28;20417;-77
2024/01/30 06:32:35;;;;;;;;;;;7.10;99.90;;;;;;5001855;28;19929;-75
2024/01/30 06:35:01;;;;;;;;;;;7.10;99.90;;;;;;5007810;28;19932;-77
2024/01/30 06:37:26;;;;;;;;;;;7.10;99.90;;;;;;5000991;28;19921;-77
2024/01/30 06:39:52;;;;;;;;;;;7.10;99.90;;;;;;5014740;28;19925;-77
2024/01/30 06:42:18;;;;;;;;;;;7.10;99.90;;;;;;4983492;28;19917;-76
2024/01/30 06:44:43;;;;;;;;;;;7.10;99.90;;;;;;5005096;28;19925;-77
2024/01/30 06:47:09;;;;;;;;;;;7.10;99.90;;;;;;4988902;28;19972;-77
2024/01/30 06:49:38;;;;;;;;;;;7.20;99.90;;;;;;5004041;28;19930;-77
2024/01/30 06:52:06;;;;;;;;;;;7.20;99.90;;;;;;5005563;28;19917;-76
2024/01/30 06:54:33;;;;;;;;;;;7.20;99.90;;;;;;5006572;28;19929;-76
2024/01/30 06:57:01;;;;;;;;;;;7.20;99.90;;;;;;5004799;28;19918;-76
2024/01/30 06:59:27;;;;;;;;;;;7.20;99.90;;;;;;5003911;28;20350;-77
2024/01/30 07:01:52;;;;;;;;;;;7.30;99.90;;;;;;5006848;28;19959;-77
2024/01/30 07:04:18;;;;;;;;;;;7.30;99.90;;;;;;5004607;28;19917;-77
2024/01/30 07:06:44;;;;;;;;;;;7.30;99.90;;;;;;5004282;28;19925;-77
2024/01/30 07:09:09;;;;;;;;;;;7.40;99.90;;;;;;4987904;28;20294;-78
2024/01/30 07:11:36;;;;;;;;;;;7.40;99.90;;;;;;5006474;28;20414;-78
2024/01/30 07:14:06;;;;;;;;;;;7.30;99.90;;;;;;5007401;28;20002;-78
2024/01/30 07:16:32;;;;;;;;;;;7.40;99.90;;;;;;4987806;28;19921;-77
2024/01/30 07:19:03;;;;;;;;;;;7.40;99.90;;;;;;4997989;28;19994;-77
2024/01/30 07:21:29;;;;;;;;;;;7.40;99.90;;;;;;5001665;28;20376;-76
2024/01/30 07:23:55;;;;;;;;;;;7.30;99.90;;;;;;5007997;28;19917;-76
2024/01/30 07:26:21;;;;;;;;;;;7.40;99.90;;;;;;5003107;28;19922;-76
2024/01/30 07:28:46;;;;;;;;;;;7.40;99.90;;;;;;5002936;28;19948;-76
2024/01/30 07:31:20;;;;;;;;;;;7.40;99.90;;;;;;5000540;28;20064;-78
2024/01/30 07:33:46;;;;;;;;;;;7.40;99.90;;;;;;5002150;28;19921;-76
2024/01/30 07:36:11;;;;;;;;;;;7.40;99.90;;;;;;5008539;28;19928;-76
2024/01/30 07:38:37;;;;;;;;;;;8.40;99.90;;;;;;5031784;28;19921;-76
2024/01/30 07:41:03;;;;;;;;;;;7.40;99.90;;;;;;5015618;28;20367;-76
2024/01/30 07:43:29;;;;;;;;;;;7.50;99.90;;;;;;5015225;28;19963;-76
2024/01/30 07:45:59;;;;;;;;;;;7.50;99.90;;;;;;5032157;28;19932;-75
2024/01/30 07:48:25;;;;;;;;;;;7.50;99.90;;;;;;4999568;28;19943;-76
2024/01/30 07:50:50;;;;;;;;;;;7.50;99.90;;;;;;5012261;28;20000;-77
2024/01/30 07:53:18;;;;;;;;;;;7.60;99.90;;;;;;5031715;28;19987;-81
2024/01/30 07:55:48;;;;;;;;;;;7.60;99.90;;;;;;5013979;28;19924;-79
2024/01/30 07:58:14;;;;;;;;;;;7.50;99.90;;;;;;5033216;28;19921;-79
2024/01/30 08:00:39;;;;;;;;;;;7.60;99.90;;;;;;5014105;28;20337;-79
2024/01/30 08:03:05;;;;;;;;;;;7.70;99.90;;;;;;5033145;28;20445;-79
2024/01/30 08:05:31;;;;;;;;;;;7.60;99.90;;;;;;5011743;28;20840;-79
2024/01/30 08:07:56;;;;;;;;;;;7.60;99.90;;;;;;5012437;28;19998;-78
2024/01/30 08:10:22;;;;;;;;;;;7.70;99.90;;;;;;5029750;28;19984;-79
2024/01/30 08:12:47;;;;;;;;;;;7.80;99.90;;;;;;5010208;28;20264;-77
2024/01/30 08:15:13;;;;;;;;;;;7.70;99.90;;;;;;5027811;28;20271;-77
2024/01/30 08:17:39;;;;;;;;;;;7.80;99.90;;;;;;5010646;28;20338;-78
2024/01/30 08:20:05;;;;;;;;;;;7.80;99.90;;;;;;5024178;28;19925;-78
2024/01/30 08:22:33;;;;;;;;;;;7.80;99.90;;;;;;5005831;28;20012;-79
2024/01/30 08:24:59;;;;;;;;;;;7.80;99.90;;;;;;4983957;28;19921;-78
2024/01/30 08:27:24;;;;;;;;;;;7.80;99.90;;;;;;5022239;28;19921;-81
2024/01/30 08:29:50;;;;;;;;;;;7.80;99.90;;;;;;5021353;28;19935;-81
2024/01/30 08:32:16;;;;;;;;;;;7.80;99.90;;;;;;4990560;28;19968;-78
2024/01/30 08:34:41;;;;;;;;;;;7.80;99.90;;;;;;5020620;28;19998;-81
2024/01/30 08:37:07;;;;;;;;;;;7.80;99.90;;;;;;5021611;28;19932;-78
2024/01/30 08:39:34;;;;;;;;;;;7.90;99.90;;;;;;5022314;28;20452;-77
2024/01/30 08:42:00;;;;;;;;;;;8.00;99.90;;;;;;4990006;28;19927;-78
2024/01/30 08:44:27;;;;;;;;;;;8.10;99.90;;;;;;4986790;28;19917;-78
2024/01/30 08:46:53;;;;;;;;;;;8.10;99.90;;;;;;5008322;28;19932;-77
2024/01/30 08:49:21;;;;;;;;;;;8.20;99.90;;;;;;5022593;28;19936;-78
2024/01/30 08:51:47;;;;;;;;;;;8.20;99.90;;;;;;5021686;28;20307;-78
2024/01/30 08:54:13;;;;;;;;;;;8.20;99.90;;;;;;4999650;28;20614;-78
2024/01/30 08:56:38;;;;;;;;;;;8.20;99.90;;;;;;5000978;28;19921;-80
2024/01/30 08:59:05;;;;;;;;;;;8.20;99.90;;;;;;5003765;28;20107;-78
2024/01/30 09:01:31;;;;;;;;;;;8.20;99.90;;;;;;4974598;28;20336;-79
2024/01/30 09:03:56;;;;;;;;;;;8.20;99.90;;;;;;5023382;28;19921;-79
2024/01/30 09:06:27;;;;;;;;;;;8.30;99.90;;;;;;5010361;28;20015;-78
2024/01/30 09:08:53;;;;;;;;;;;8.30;99.90;;;;;;5029880;28;19929;-78
2024/01/30 09:11:19;;;;;;;;;;;8.30;99.90;;;;;;5012535;28;19924;-78
2024/01/30 09:13:52;;;;;;;;;;;8.40;99.90;;;;;;5011844;28;20319;-79
2024/01/30 09:16:18;;;;;;;;;;;8.40;99.90;;;;;;5032114;28;20011;-79
2024/01/30 09:18:43;;;;;;;;;;;8.40;99.90;;;;;;5031146;28;20016;-78
2024/01/30 09:21:09;;;;;;;;;;;8.50;99.90;;;;;;5026606;28;19921;-79
2024/01/30 09:23:38;;;;;;;;;;;8.60;99.90;;;;;;5030652;28;19927;-78
2024/01/30 09:26:03;;;;;;;;;;;8.60;99.90;;;;;;5014344;28;20248;-80
2024/01/30 09:28:32;;;;;;;;;;;8.70;99.90;;;;;;5026208;28;19926;-78
2024/01/30 09:30:58;;;;;;;;;;;8.80;99.90;;;;;;5011599;28;19971;-79
2024/01/30 09:33:23;;;;;;;;;;;8.80;99.90;;;;;;5011026;28;19921;-79
2024/01/30 09:35:50;;;;;;;;;;;9.00;99.90;;;;;;5011075;28;20004;-80
2024/01/30 09:38:16;;;;;;;;;;;9.10;99.90;;;;;;5006342;28;19973;-80
2024/01/30 09:40:53;;;;;;;;;;;9.20;99.90;;;;;;5010068;28;19923;-80
2024/01/30 09:43:29;;;;;;;;;;;9.30;99.90;;;;;;5014555;28;19974;-79
2024/01/30 09:45:55;;;;;;;;;;;9.40;99.90;;;;;;5011363;28;19925;-78
2024/01/30 09:48:26;;;;;;;;;;;9.50;99.90;;;;;;4993245;28;19944;-78
2024/01/30 09:50:53;;;;;;;;;;;9.50;99.90;;;;;;5007079;28;20399;-79
2024/01/30 09:53:19;;;;;;;;;;;9.50;99.90;;;;;;5008980;28;19959;-78
2024/01/30 09:55:45;;;;;;;;;;;9.60;99.90;;;;;;5010433;28;19921;-80
2024/01/30 09:58:11;;;;;;;;;;;9.60;99.90;;;;;;5006763;28;19956;-79
2024/01/30 10:00:38;;;;;;;;;;;9.60;99.90;;;;;;5010112;28;19925;-78
2024/01/30 10:03:05;;;;;;;;;;;9.60;99.90;;;;;;5007518;28;19965;-79
2024/01/30 10:05:33;;;;;;;;;;;9.60;99.90;;;;;;5006472;28;19917;-79
2024/01/30 10:07:59;;;;;;;;;;;9.70;99.90;;;;;;5006654;28;20263;-79
2024/01/30 10:10:25;;;;;;;;;;;9.70;99.90;;;;;;5008016;28;19979;-78
2024/01/30 10:12:50;;;;;;;;;;;9.70;99.90;;;;;;5008112;28;20396;-78
2024/01/30 10:15:17;;;;;;;;;;;9.70;99.90;;;;;;5007125;28;19918;-80
2024/01/30 10:17:44;;;;;;;;;;;9.80;99.90;;;;;;5011363;28;20386;-79
2024/01/30 10:20:10;;;;;;;;;;;9.90;99.90;;;;;;4988795;28;20476;-80
2024/01/30 10:22:45;;;;;;;;;;;10.00;99.90;;;;;;5012520;28;20413;-79
2024/01/30 10:25:11;;;;;;;;;;;10.20;99.90;;;;;;5005977;28;19917;-81
2024/01/30 10:27:39;;;;;;;;;;;10.20;99.90;;;;;;5011275;28;19917;-79
2024/01/30 10:30:06;;;;;;;;;;;10.20;99.90;;;;;;5010115;28;19925;-79
2024/01/30 10:32:31;;;;;;;;;;;10.20;99.90;;;;;;5009407;28;19917;-79
2024/01/30 10:35:00;;;;;;;;;;;10.20;99.90;;;;;;5005627;28;19921;-79
2024/01/30 10:37:26;;;;;;;;;;;10.20;99.90;;;;;;5005925;28;19936;-78
2024/01/30 10:39:53;;;;;;;;;;;10.20;99.90;;;;;;5005351;28;20426;-78
2024/01/30 10:42:20;;;;;;;;;;;10.20;99.90;;;;;;5012001;28;20446;-78
2024/01/30 10:44:58;;;;;;;;;;;10.20;99.90;;;;;;4993910;28;20302;-79
2024/01/30 10:47:34;;;;;;;;;;;10.20;99.90;;;;;;5007546;28;19926;-79
2024/01/30 10:49:59;;;;;;;;;;;10.30;99.90;;;;;;5007356;28;20518;-78
2024/01/30 10:52:25;;;;;;;;;;;10.20;99.90;;;;;;5004918;28;19932;-79
2024/01/30 10:54:53;;;;;;;;;;;10.20;99.90;;;;;;5025582;28;19925;-80
2024/01/30 10:57:19;;;;;;;;;;;10.20;99.90;;;;;;5008317;28;19932;-78
2024/01/30 10:59:45;;;;;;;;;;;10.30;99.90;;;;;;5006893;28;19917;-78
2024/01/30 11:02:14;;;;;;;;;;;10.30;99.90;;;;;;5006790;28;20391;-78
2024/01/30 11:04:43;;;;;;;;;;;10.30;99.90;;;;;;4990364;28;19975;-77
2024/01/30 11:07:17;;;;;;;;;;;10.30;99.90;;;;;;5011037;28;19924;-77
2024/01/30 11:10:06;;;;;;;;;;;10.40;99.90;;;;;;5009889;28;20020;-77
2024/01/30 11:12:33;;;;;;;;;;;10.30;99.90;;;;;;5004716;28;19917;-77
2024/01/30 11:15:06;;;;;;;;;;;10.30;99.90;;;;;;5003828;28;19924;-77
2024/01/30 11:17:41;;;;;;;;;;;10.40;99.90;;;;;;5006936;28;20151;-76
2024/01/30 11:22:11;;;;;;;0.95;0.95;;;10.30;99.90;;;;;;5164893;27;20400;-78
2024/01/30 11:24:43;;;;;;;1.05;1.05;;;10.40;99.90;;;;;;5141626;27;20042;-79
2024/01/30 11:27:10;;;;;;;2.75;1.27;;;10.40;99.90;;;;;;5158813;27;20062;-78
2024/01/30 11:29:36;;;;;;;0.75;0.75;;;10.40;99.90;;;;;;5138760;27;20126;-77
2024/01/30 11:32:08;;;;;;;0.65;0.65;;;10.40;99.90;;;;;;5167784;27;20042;-78
2024/01/30 11:34:34;;;;;;;1.08;0.85;;;10.40;99.90;;;;;;5161963;27;20221;-77
2024/01/30 11:37:09;;;;;;;;;;;10.50;99.90;;;;;;5167520;27;20106;-80
2024/01/30 11:39:36;;;;;;;0.70;0.57;;;10.40;99.90;;;;;;5167364;27;20067;-77
2024/01/30 11:42:05;;;;;;;3.38;1.90;;;10.40;99.90;;;;;;5170414;27;20054;-78
2024/01/30 11:44:31;;;;;;;1.25;1.15;;;10.40;99.90;;;;;;5166974;27;20027;-79
2024/01/30 11:46:57;;;;;;;0.93;0.93;;;10.30;99.90;;;;;;5149166;27;20040;-78
2024/01/30 11:49:29;;;;;;;0.43;0.43;;;10.30;99.90;;;;;;5156550;27;20073;-78
2024/01/30 11:51:54;;;;;;;0.70;0.70;;;10.30;99.90;;;;;;5162524;27;20117;-79
2024/01/30 11:54:20;;;;;;;0.60;0.60;;;10.30;99.90;;;;;;5163674;27;20113;-77
2024/01/30 11:56:47;;;;;;;0.73;0.73;;;10.30;99.90;;;;;;5146684;27;20049;-77
2024/01/30 11:59:14;;;;;;;0.80;0.80;;;10.30;99.90;;;;;;5124773;27;20045;-77
2024/01/30 12:01:40;;;;;;;0.98;0.85;;;10.20;99.90;;;;;;5162175;27;20053;-79
2024/01/30 12:04:09;;;;;;;0.75;0.70;;;10.10;99.90;;;;;;5162719;27;20042;-77
2024/01/30 12:06:36;;;;;;;0.55;0.55;;;10.20;99.90;;;;;;5143267;27;20030;-77
2024/01/30 12:09:10;;;;;;;0.40;0.40;;;10.10;99.90;;;;;;5127208;27;20125;-78
2024/01/30 12:11:49;;;;;;;0.40;0.40;;;10.10;99.90;;;;;;5165403;27;20057;-78
2024/01/30 12:14:16;;;;;;;0.75;0.60;;;10.00;99.90;;;;;;5139971;27;20042;-77
2024/01/30 12:16:42;;;;;;;0.60;0.60;;;10.00;99.90;;;;;;5127801;27;20038;-77
2024/01/30 12:19:09;;;;;;;0.40;0.40;;;9.90;99.90;;;;;;5148228;27;20039;-77
2024/01/30 12:21:38;;;;;;;0.50;0.50;;;9.90;99.90;;;;;;5162162;27;20058;-78
2024/01/30 12:24:07;;;;;;;0.40;0.40;;;9.90;99.90;;;;;;5162336;27;20437;-76
2024/01/30 12:26:33;;;;;;;0.50;0.50;;;9.90;99.90;;;;;;5156391;27;20357;-77
2024/01/30 12:28:59;;;;;;;0.30;0.30;;;9.80;99.90;;;;;;5145175;27;20252;-80
2024/01/30 12:31:28;;;;;;;0.40;0.40;;;9.60;99.90;;;;;;5160727;27;20042;-79
2024/01/30 12:33:55;;;;;;;0.40;0.40;;;9.80;99.90;;;;;;5149541;27;20035;-78
2024/01/30 12:36:23;;;;;;;0.40;0.40;;;9.60;99.90;;;;;;5145025;27;20491;-78
2024/01/30 12:38:49;;;;;;;0.47;0.47;;;9.70;99.90;;;;;;5144623;27;20030;-79
2024/01/30 12:41:14;;;;;;;;;;;9.80;99.90;;;;;;5134428;27;20042;-78
2024/01/30 12:43:47;;;;;;;0.40;0.40;;;9.90;99.90;;;;;;5150520;27;19965;-79
2024/01/30 12:46:20;;;;;;;0.40;0.40;;;9.90;99.90;;;;;;5133096;27;20061;-80
2024/01/30 12:48:46;;;;;;;0.40;0.40;;;9.90;99.90;;;;;;5153120;27;20058;-77
2024/01/30 12:51:11;;;;;;;0.40;0.40;;;9.80;99.90;;;;;;5149790;27;20480;-78
2024/01/30 12:53:38;;;;;;;0.30;0.30;;;9.70;99.90;;;;;;5144905;27;20038;-77
2024/01/30 12:56:04;;;;;;;0.95;0.80;;;9.80;99.90;;;;;;5146893;27;20412;-79
2024/01/30 12:58:30;;;;;;;;;;;9.90;99.90;;;;;;5145981;27;20057;-78
2024/01/30 13:00:58;;;;;;;0.50;0.50;;;9.90;99.90;;;;;;5149017;27;20403;-78
2024/01/30 13:03:24;;;;;;;0.32;0.32;;;9.90;99.90;;;;;;5127356;27;20034;-77
2024/01/30 13:05:57;;;;;;;0.70;0.70;;;9.90;99.90;;;;;;5140667;27;20031;-80
2024/01/30 13:08:25;;;;;;;0.50;0.50;;;9.90;99.90;;;;;;5145762;27;20127;-80
2024/01/30 13:10:51;;;;;;;0.45;0.45;;;9.90;99.90;;;;;;5149210;27;20050;-78
2024/01/30 13:13:17;;;;;;;0.35;0.35;;;9.90;99.90;;;;;;5153136;27;20043;-79
2024/01/30 13:15:43;;;;;;;;;;;9.90;99.90;;;;;;5148271;27;20031;-79
2024/01/30 13:18:08;;;;;;;0.40;0.40;;;9.90;99.90;;;;;;5113211;27;20021;-78
2024/01/30 13:20:40;;;;;;;0.40;0.40;;;9.90;99.90;;;;;;5146581;27;20077;-78
2024/01/30 13:23:07;;;;;;;0.40;0.40;;;9.90;99.90;;;;;;5148839;27;20527;-82
2024/01/30 13:25:42;;;;;;;3.33;1.40;;;9.80;99.90;;;;;;5149587;27;20113;-79
2024/01/30 13:28:09;;;;;;;0.40;0.40;;;9.80;99.90;;;;;;5149146;27;20099;-78
2024/01/30 13:30:40;;;;;;;0.40;0.40;;;9.60;99.90;;;;;;5152736;27;20510;-78
2024/01/30 13:33:06;;;;;;;0.47;0.47;;;9.70;99.90;;;;;;5122728;27;20027;-79
2024/01/30 13:35:41;;;;;;;0.40;0.40;;;9.60;99.90;;;;;;5144031;27;20118;-80
2024/01/30 13:38:25;;;;;;;0.40;0.40;;;9.60;99.90;;;;;;5130885;27;20180;-79
2024/01/30 13:40:51;;;;;;;0.40;0.40;;;9.50;99.90;;;;;;5148994;27;20047;-79
2024/01/30 13:43:18;;;;;;;0.32;0.32;;;9.50;99.90;;;;;;5143291;27;20047;-76
2024/01/30 13:45:49;;;;;;;0.40;0.40;;;9.50;99.90;;;;;;5135358;27;20513;-80
2024/01/30 13:48:16;;;;;;;0.40;0.40;;;9.40;99.90;;;;;;5132153;27;20038;-78
2024/01/30 13:50:42;;;;;;;0.50;0.50;;;9.40;99.90;;;;;;5147157;27;20569;-78
2024/01/30 13:53:08;;;;;;;0.40;0.40;;;9.40;99.90;;;;;;5130049;27;20035;-80
2024/01/30 13:55:35;;;;;;;0.60;0.60;;;9.30;99.90;;;;;;5145704;27;20556;-79
2024/01/30 13:58:11;;;;;;;;;;;9.30;99.90;;;;;;5144018;27;20035;-78
2024/01/30 14:00:51;;;;;;;0.47;0.47;;;9.30;99.90;;;;;;5132788;27;19919;-78
2024/01/30 14:03:17;;;;;;;0.50;0.50;;;9.30;99.90;;;;;;5146338;27;20471;-78
2024/01/30 14:05:43;;;;;;;0.77;0.77;;;9.40;99.90;;;;;;5141821;27;20034;-79
2024/01/30 14:08:16;;;;;;;0.30;0.30;;;9.40;99.90;;;;;;5146240;27;20065;-78